createdAt,value
2018-05-09T00:00:21.262Z,57.98
2018-05-09T00:02:49.534Z,57.43
2018-05-09T00:05:17.837Z,57.13
2018-05-09T00:07:46.107Z,57.27
2018-05-09T00:10:14.561Z,57.66
2018-05-09T00:12:42.820Z,57.62
2018-05-09T00:15:11.315Z,57.69
2018-05-09T00:17:40.411Z,57.18
2018-05-09T00:20:08.721Z,57.29
2018-05-09T00:22:37.043Z,57.60
2018-05-09T00:25:05.700Z,57.64
2018-05-09T00:27:34.482Z,57.81
2018-05-09T00:30:02.711Z,58.49
2018-05-09T00:32:31.091Z,58.33
2018-05-09T00:34:59.413Z,58.05
2018-05-09T00:37:27.793Z,59.04
2018-05-09T00:39:57.115Z,57.90
2018-05-09T00:42:25.702Z,58.51
2018-05-09T00:44:53.958Z,58.71
2018-05-09T00:47:22.301Z,58.63
2018-05-09T00:49:50.638Z,59.73
2018-05-09T00:52:18.935Z,59.73
2018-05-09T00:54:47.204Z,59.20
2018-05-09T00:57:15.532Z,58.98
2018-05-09T00:59:44.874Z,58.72
2018-05-09T01:02:13.315Z,58.75
2018-05-09T01:04:42.469Z,59.67
2018-05-09T01:07:11.060Z,59.45
2018-05-09T01:09:39.363Z,59.82
2018-05-09T01:12:07.686Z,61.20
2018-05-09T01:14:35.961Z,62.13
2018-05-09T01:17:04.297Z,61.52
2018-05-09T01:19:33.064Z,60.94
2018-05-09T01:22:01.537Z,61.12
2018-05-09T01:24:29.835Z,61.15
2018-05-09T01:26:59.392Z,62.23
2018-05-09T01:29:27.659Z,60.81
2018-05-09T01:31:56.318Z,61.25
2018-05-09T01:34:24.591Z,60.61
2018-05-09T01:36:53.318Z,61.43
2018-05-09T01:39:21.904Z,62.48
2018-05-09T01:41:50.394Z,61.21
2018-05-09T01:44:18.649Z,61.70
2018-05-09T01:46:46.955Z,62.63
2018-05-09T01:49:15.258Z,62.78
2018-05-09T01:51:43.559Z,64.12
2018-05-09T01:54:11.846Z,62.62
2018-05-09T01:56:40.375Z,63.34
2018-05-09T01:59:08.661Z,64.09
2018-05-09T02:01:36.982Z,62.50
2018-05-09T02:04:05.228Z,62.67
2018-05-09T02:06:33.539Z,63.17
2018-05-09T02:09:01.812Z,64.93
2018-05-09T02:11:30.160Z,65.86
2018-05-09T02:13:58.423Z,63.59
2018-05-09T02:16:26.900Z,64.80
2018-05-09T02:18:55.145Z,64.46
2018-05-09T02:21:23.522Z,64.45
2018-05-09T02:23:51.786Z,64.56
2018-05-09T02:26:20.132Z,63.76
2018-05-09T02:28:48.564Z,63.87
2018-05-09T02:31:17.132Z,63.95
2018-05-09T02:33:45.375Z,64.30
2018-05-09T02:36:13.749Z,64.57
2018-05-09T02:38:42.072Z,64.95
2018-05-09T02:41:10.392Z,66.07
2018-05-09T02:43:38.753Z,67.76
2018-05-09T02:46:07.005Z,66.07
2018-05-09T02:48:35.275Z,65.53
2018-05-09T02:51:03.695Z,65.24
2018-05-09T02:53:31.977Z,66.78
2018-05-09T02:56:00.687Z,65.65
2018-05-09T02:58:29.116Z,67.75
2018-05-09T03:00:57.439Z,66.76
2018-05-09T03:03:25.699Z,66.76
2018-05-09T03:05:54.004Z,67.78
2018-05-09T03:08:22.302Z,69.05
2018-05-09T03:10:50.859Z,67.74
2018-05-09T03:13:19.263Z,68.14
2018-05-09T03:15:47.564Z,67.56
2018-05-09T03:18:17.030Z,68.04
2018-05-09T03:20:45.343Z,69.02
2018-05-09T03:23:13.690Z,69.41
2018-05-09T03:25:42.115Z,70.10
2018-05-09T03:28:10.425Z,69.94
2018-05-09T03:30:38.766Z,68.80
2018-05-09T03:33:07.006Z,68.42
2018-05-09T03:35:35.343Z,68.97
2018-05-09T03:38:03.917Z,69.69
2018-05-09T03:40:32.214Z,69.05
2018-05-09T03:43:00.476Z,68.63
2018-05-09T03:45:29.293Z,69.12
2018-05-09T03:47:57.786Z,70.63
2018-05-09T03:50:26.109Z,69.03
2018-05-09T03:52:55.406Z,69.19
2018-05-09T03:55:23.694Z,70.84
2018-05-09T03:57:52.103Z,70.16
2018-05-09T04:08:24.868Z,68.37
2018-05-09T04:10:53.995Z,69.35
2018-05-09T04:13:22.988Z,69.33
2018-05-09T04:15:51.419Z,69.54
2018-05-09T04:18:19.979Z,70.58
2018-05-09T04:20:48.554Z,70.57
2018-05-09T04:23:17.119Z,70.33
2018-05-09T04:25:45.589Z,70.81
2018-05-09T04:28:14.129Z,70.88
2018-05-09T04:30:43.037Z,70.85
2018-05-09T04:33:11.487Z,70.66
2018-05-09T04:35:40.027Z,71.27
2018-05-09T04:38:08.715Z,71.78
2018-05-09T04:40:37.393Z,70.03
2018-05-09T04:43:05.988Z,71.00
2018-05-09T04:45:34.497Z,69.63
2018-05-09T04:48:03.079Z,70.27
2018-05-09T04:50:32.202Z,69.42
2018-05-09T04:53:00.775Z,68.59
2018-05-09T04:55:29.344Z,68.29
2018-05-09T04:57:57.926Z,67.44
2018-05-09T05:00:27.274Z,67.95
2018-05-09T05:02:55.914Z,67.75
2018-05-09T05:05:24.433Z,67.22
2018-05-09T05:07:52.887Z,66.69
2018-05-09T05:10:21.396Z,66.53
2018-05-09T05:12:50.035Z,66.69
2018-05-09T05:15:18.551Z,66.94
2018-05-09T05:17:47.059Z,66.83
2018-05-09T05:20:15.560Z,66.42
2018-05-09T05:22:44.127Z,66.04
2018-05-09T05:25:12.716Z,66.35
2018-05-09T05:27:41.262Z,66.51
2018-05-09T05:30:09.835Z,65.87
2018-05-09T05:32:38.499Z,64.42
2018-05-09T05:35:07.080Z,65.00
2018-05-09T05:37:35.699Z,64.26
2018-05-09T05:40:11.145Z,63.85
2018-05-09T05:42:40.007Z,63.95
2018-05-09T05:45:08.600Z,64.21
2018-05-09T05:47:37.166Z,62.80
2018-05-09T05:50:05.643Z,63.23
2018-05-09T05:52:34.700Z,62.88
2018-05-09T05:55:03.205Z,63.02
2018-05-09T05:57:31.732Z,62.45
2018-05-09T06:00:00.408Z,61.59
2018-05-09T06:02:29.820Z,60.93
2018-05-09T06:04:58.444Z,60.60
2018-05-09T06:07:26.949Z,60.37
2018-05-09T06:09:56.019Z,60.59
2018-05-09T06:12:24.472Z,59.33
2018-05-09T06:14:52.916Z,60.69
2018-05-09T06:17:21.707Z,59.68
2018-05-09T06:19:50.731Z,59.76
2018-05-09T06:22:19.298Z,59.21
2018-05-09T06:24:47.977Z,58.63
2018-05-09T06:27:16.994Z,58.67
2018-05-09T06:29:45.412Z,58.87
2018-05-09T06:32:13.952Z,58.07
2018-05-09T06:34:43.619Z,58.02
2018-05-09T06:37:12.666Z,58.24
2018-05-09T06:39:42.046Z,57.22
2018-05-09T06:42:11.790Z,57.22
2018-05-09T06:44:40.954Z,57.90
2018-05-09T06:47:09.451Z,57.10
2018-05-09T06:49:38.105Z,56.56
2018-05-09T06:52:06.720Z,56.83
2018-05-09T06:54:35.368Z,56.24
2018-05-09T06:57:04.069Z,56.04
2018-05-09T06:59:32.939Z,56.30
2018-05-09T07:02:01.453Z,56.55
2018-05-09T07:04:30.126Z,55.72
2018-05-09T07:06:58.638Z,56.00
2018-05-09T07:09:27.329Z,54.93
2018-05-09T07:11:56.532Z,55.03
2018-05-09T07:14:25.063Z,55.20
2018-05-09T07:16:54.090Z,55.52
2018-05-09T07:19:22.847Z,55.05
2018-05-09T07:21:58.344Z,55.48
2018-05-09T07:24:26.920Z,55.06
2018-05-09T07:26:55.681Z,54.10
2018-05-09T07:29:24.157Z,54.50
2018-05-09T07:31:53.684Z,54.43
2018-05-09T07:34:22.144Z,53.68
2018-05-09T07:36:50.700Z,53.72
2018-05-09T07:39:19.411Z,53.72
2018-05-09T07:41:49.033Z,54.02
2018-05-09T07:44:17.900Z,53.72
2018-05-09T07:46:46.398Z,53.15
2018-05-09T07:49:14.902Z,53.43
2018-05-09T07:51:43.627Z,51.79
2018-05-09T07:54:16.090Z,52.44
2018-05-09T07:56:44.563Z,52.17
2018-05-09T07:59:14.002Z,52.01
2018-05-09T08:01:42.620Z,52.33
2018-05-09T08:04:11.274Z,52.19
2018-05-09T08:06:40.247Z,52.85
2018-05-09T08:09:08.744Z,51.53
2018-05-09T08:11:37.117Z,51.06
2018-05-09T08:14:06.121Z,51.57
2018-05-09T08:16:34.780Z,50.77
2018-05-09T08:19:03.263Z,51.54
2018-05-09T08:21:32.028Z,49.96
2018-05-09T08:24:00.574Z,49.33
2018-05-09T08:26:29.091Z,49.37
2018-05-09T08:28:57.504Z,49.51
2018-05-09T08:31:26.024Z,49.15
2018-05-09T08:33:54.486Z,48.70
2018-05-09T08:36:23.007Z,48.77
2018-05-09T08:38:51.529Z,49.51
2018-05-09T08:41:20.195Z,48.04
2018-05-09T08:43:48.999Z,48.43
2018-05-09T08:46:17.421Z,48.34
2018-05-09T08:48:46.583Z,47.92
2018-05-09T08:51:15.574Z,47.19
2018-05-09T08:53:44.239Z,47.70
2018-05-09T08:56:13.426Z,47.26
2018-05-09T08:58:42.033Z,47.26
2018-05-09T09:01:11.911Z,47.42
2018-05-09T09:03:41.580Z,47.71
2018-05-09T09:06:10.315Z,46.87
2018-05-09T09:08:39.363Z,46.73
2018-05-09T09:11:08.059Z,45.80
2018-05-09T09:13:36.630Z,45.93
2018-05-09T09:16:06.035Z,46.25
2018-05-09T09:18:34.598Z,45.69
2018-05-09T09:21:03.682Z,45.19
2018-05-09T09:23:32.391Z,45.31
2018-05-09T09:26:01.424Z,44.95
2018-05-09T09:28:30.164Z,44.46
2018-05-09T09:30:58.726Z,43.41
2018-05-09T09:33:27.379Z,43.13
2018-05-09T09:35:57.555Z,41.68
2018-05-09T09:38:28.281Z,41.26
2018-05-09T09:40:58.025Z,41.13
2018-05-09T09:43:27.925Z,40.35
2018-05-09T09:45:58.388Z,40.31
2018-05-09T09:48:28.527Z,40.87
2018-05-09T09:51:00.582Z,39.41
2018-05-09T09:53:32.292Z,39.15
2018-05-09T09:56:01.044Z,39.33
2018-05-09T09:58:29.737Z,39.87
2018-05-09T10:00:59.039Z,37.25
2018-05-09T10:03:28.454Z,37.34
2018-05-09T10:08:35.624Z,37.62
2018-05-09T10:11:04.364Z,36.37
2018-05-09T10:13:47.915Z,35.56
2018-05-09T10:16:16.651Z,35.98
2018-05-09T10:18:45.216Z,35.48
2018-05-09T10:21:13.947Z,36.23
2018-05-09T10:23:42.617Z,36.16
2018-05-09T10:26:11.535Z,35.24
2018-05-09T10:28:40.413Z,34.58
2018-05-09T10:31:10.052Z,33.62
2018-05-09T10:33:38.723Z,32.84
2018-05-09T10:36:07.453Z,33.96
2018-05-09T10:38:36.112Z,33.17
2018-05-09T10:41:05.747Z,33.78
2018-05-09T10:43:36.010Z,32.52
2018-05-09T10:46:05.726Z,32.15
2018-05-09T10:48:35.231Z,31.53
2018-05-09T10:51:05.138Z,31.95
2018-05-09T10:53:34.673Z,29.10
2018-05-09T10:56:03.331Z,31.45
2018-05-09T10:58:31.991Z,31.22
2018-05-09T11:01:00.709Z,30.08
2018-05-09T11:03:29.968Z,29.81
2018-05-09T11:05:59.671Z,28.47
2018-05-09T11:08:28.740Z,28.90
2018-05-09T11:10:58.527Z,29.07
2018-05-09T11:13:27.226Z,27.55
2018-05-09T11:15:56.068Z,27.89
2018-05-09T11:18:24.696Z,28.46
2018-05-09T11:20:53.492Z,30.71
2018-05-09T11:23:22.063Z,32.58
2018-05-09T11:25:50.494Z,33.55
2018-05-09T11:28:20.839Z,31.37
2018-05-09T11:30:51.318Z,32.28
2018-05-09T11:33:20.943Z,28.96
2018-05-09T11:35:50.240Z,28.67
2018-05-09T11:38:19.250Z,29.32
2018-05-09T11:40:48.072Z,30.81
2018-05-09T11:43:16.663Z,29.74
2018-05-09T11:45:45.163Z,31.14
2018-05-09T11:48:13.819Z,32.11
2018-05-09T11:50:42.336Z,32.42
2018-05-09T11:53:10.852Z,31.93
2018-05-09T11:55:40.319Z,32.60
2018-05-09T11:58:08.986Z,32.39
2018-05-09T12:00:37.543Z,33.35
2018-05-09T12:03:06.521Z,34.42
2018-05-09T12:05:35.309Z,31.10
2018-05-09T12:08:03.900Z,29.72
2018-05-09T12:10:32.585Z,31.40
2018-05-09T12:13:01.114Z,32.29
2018-05-09T12:15:29.712Z,31.42
2018-05-09T12:17:58.350Z,29.98
2018-05-09T12:20:26.936Z,30.98
2018-05-09T12:22:57.000Z,29.44
2018-05-09T12:25:26.120Z,31.19
2018-05-09T12:27:54.898Z,29.58
2018-05-09T12:30:23.650Z,27.22
2018-05-09T12:32:52.231Z,25.35
2018-05-09T12:35:20.785Z,26.43
2018-05-09T12:37:49.598Z,25.64
2018-05-09T12:40:18.079Z,26.63
2018-05-09T12:42:46.620Z,30.27
2018-05-09T12:45:15.492Z,31.97
2018-05-09T12:47:43.971Z,31.24
2018-05-09T12:50:12.949Z,28.97
2018-05-09T12:52:41.587Z,31.74
2018-05-09T12:55:10.424Z,26.03
2018-05-09T12:57:39.011Z,31.04
2018-05-09T13:00:08.408Z,26.74
2018-05-09T13:02:37.305Z,23.57
2018-05-09T13:05:06.427Z,23.28
2018-05-09T13:07:35.100Z,22.87
2018-05-09T13:10:04.671Z,23.35
2018-05-09T13:12:33.426Z,23.78
2018-05-09T13:15:03.209Z,23.19
2018-05-09T13:17:34.202Z,22.34
2018-05-09T13:20:03.611Z,22.31
2018-05-09T13:22:33.074Z,24.73
2018-05-09T13:25:02.052Z,23.33
2018-05-09T13:27:30.953Z,23.14
2018-05-09T13:29:59.823Z,21.92
2018-05-09T13:32:30.173Z,22.16
2018-05-09T13:34:58.991Z,26.65
2018-05-09T13:37:27.599Z,29.53
2018-05-09T13:39:56.436Z,27.48
2018-05-09T13:42:25.099Z,29.77
2018-05-09T13:44:53.990Z,29.92
2018-05-09T13:47:22.506Z,26.08
2018-05-09T13:49:51.611Z,22.78
2018-05-09T13:52:20.362Z,26.74
2018-05-09T13:54:49.334Z,28.73
2018-05-09T13:57:18.283Z,28.07
2018-05-09T13:59:46.975Z,24.93
2018-05-09T14:02:15.425Z,24.12
2018-05-09T14:04:44.523Z,27.99
2018-05-09T14:07:13.342Z,25.05
2018-05-09T14:09:42.025Z,22.49
2018-05-09T14:12:10.609Z,22.74
2018-05-09T14:14:39.466Z,23.65
2018-05-09T14:17:08.556Z,22.51
2018-05-09T14:19:37.193Z,21.85
2018-05-09T14:22:06.777Z,21.62
2018-05-09T14:24:35.711Z,21.93
2018-05-09T14:27:05.705Z,22.00
2018-05-09T14:29:34.839Z,21.84
2018-05-09T14:32:03.371Z,21.39
2018-05-09T14:34:32.647Z,22.06
2018-05-09T14:37:01.302Z,21.81
2018-05-09T14:39:29.902Z,22.67
2018-05-09T14:41:58.474Z,22.73
2018-05-09T14:44:27.163Z,22.46
2018-05-09T14:46:55.816Z,23.08
2018-05-09T14:49:24.764Z,22.37
2018-05-09T14:51:53.711Z,21.85
2018-05-09T14:54:22.357Z,22.24
2018-05-09T14:56:51.219Z,22.77
2018-05-09T14:59:20.122Z,21.82
2018-05-09T15:01:49.135Z,26.05
2018-05-09T15:04:17.715Z,21.29
2018-05-09T15:06:56.470Z,23.15
2018-05-09T15:09:25.576Z,22.71
2018-05-09T15:11:55.323Z,23.47
2018-05-09T15:14:24.363Z,26.34
2018-05-09T15:16:57.992Z,26.49
2018-05-09T15:19:26.659Z,29.30
2018-05-09T15:21:55.572Z,30.94
2018-05-09T15:24:24.297Z,30.43
2018-05-09T15:26:53.866Z,30.29
2018-05-09T15:29:22.930Z,30.96
2018-05-09T15:31:52.260Z,31.48
2018-05-09T15:34:21.836Z,31.93
2018-05-09T15:36:51.263Z,32.76
2018-05-09T15:39:19.948Z,33.17
2018-05-09T15:41:49.088Z,33.24
2018-05-09T15:44:17.839Z,33.29
2018-05-09T15:46:47.535Z,32.45
2018-05-09T15:49:16.183Z,32.35
2018-05-09T15:51:44.803Z,33.91
2018-05-09T15:54:13.669Z,33.77
2018-05-09T15:56:42.143Z,31.99
2018-05-09T15:59:11.466Z,32.36
2018-05-09T16:01:40.588Z,32.98
2018-05-09T16:04:11.410Z,34.37
2018-05-09T16:06:40.544Z,33.04
2018-05-09T16:09:09.299Z,33.58
2018-05-09T16:11:38.188Z,34.77
2018-05-09T16:14:07.915Z,34.47
2018-05-09T16:16:45.565Z,34.81
2018-05-09T16:19:14.329Z,34.87
2018-05-09T16:21:43.283Z,35.00
2018-05-09T16:24:12.972Z,35.26
2018-05-09T16:26:42.451Z,36.26
2018-05-09T16:29:14.226Z,36.52
2018-05-09T16:31:46.970Z,37.60
2018-05-09T16:34:16.438Z,37.17
2018-05-09T16:36:45.112Z,37.46
2018-05-09T16:39:13.796Z,37.80
2018-05-09T16:41:42.241Z,38.65
2018-05-09T16:44:12.067Z,38.18
2018-05-09T16:46:41.865Z,37.42
2018-05-09T16:49:10.331Z,38.30
2018-05-09T16:51:39.192Z,38.86
2018-05-09T16:54:07.948Z,39.28
2018-05-09T16:56:37.346Z,39.55
2018-05-09T16:59:06.687Z,39.71
2018-05-09T17:01:35.800Z,40.66
2018-05-09T17:04:04.416Z,41.30
2018-05-09T17:06:34.917Z,40.73
2018-05-09T17:09:03.828Z,41.89
2018-05-09T17:11:33.024Z,42.06
2018-05-09T17:14:03.493Z,41.26
2018-05-09T17:16:33.951Z,41.81
2018-05-09T17:19:04.749Z,41.26
2018-05-09T17:21:46.031Z,42.35
2018-05-09T17:24:14.727Z,42.29
2018-05-09T17:26:43.414Z,43.72
2018-05-09T17:29:12.104Z,42.68
2018-05-09T17:31:41.871Z,42.58
2018-05-09T17:34:10.929Z,43.15
2018-05-09T17:36:39.911Z,42.43
2018-05-09T17:39:08.900Z,44.21
2018-05-09T17:41:37.955Z,43.02
2018-05-09T17:44:07.056Z,44.00
2018-05-09T17:46:35.760Z,42.83
2018-05-09T17:49:04.406Z,41.74
2018-05-09T17:51:32.824Z,41.95
2018-05-09T17:54:01.584Z,42.10
2018-05-09T17:56:30.151Z,41.73
2018-05-09T17:58:59.452Z,42.27
2018-05-09T18:01:29.691Z,42.45
2018-05-09T18:04:00.283Z,42.90
2018-05-09T18:06:29.088Z,42.99
2018-05-09T18:08:59.388Z,44.18
2018-05-09T18:11:30.058Z,44.01
2018-05-09T18:13:58.813Z,44.63
2018-05-09T18:16:27.388Z,46.10
2018-05-09T18:18:56.501Z,47.18
2018-05-09T18:21:26.671Z,52.13
2018-05-09T18:23:55.250Z,53.51
2018-05-09T18:26:24.825Z,55.40
2018-05-09T18:28:54.048Z,52.41
2018-05-09T18:31:23.315Z,53.21
2018-05-09T18:33:51.824Z,54.89
2018-05-09T18:36:20.512Z,55.03
2018-05-09T18:38:49.987Z,54.91
2018-05-09T18:41:19.599Z,55.34
2018-05-09T18:43:48.381Z,55.34
2018-05-09T18:46:16.945Z,54.91
2018-05-09T18:48:45.556Z,54.25
2018-05-09T18:51:15.164Z,54.34
2018-05-09T18:53:44.167Z,56.04
2018-05-09T18:56:12.883Z,54.99
2018-05-09T18:58:41.339Z,57.91
2018-05-09T19:01:09.930Z,58.13
2018-05-09T19:03:39.380Z,59.83
2018-05-09T19:06:08.073Z,62.96
2018-05-09T19:08:36.964Z,64.65
2018-05-09T19:11:06.446Z,65.01
2018-05-09T19:13:35.167Z,66.42
2018-05-09T19:16:03.847Z,66.64
2018-05-09T19:18:32.512Z,65.04
2018-05-09T19:21:01.399Z,68.90
2018-05-09T19:23:30.067Z,67.46
2018-05-09T19:25:59.176Z,68.79
2018-05-09T19:28:28.009Z,69.12
2018-05-09T19:30:56.973Z,70.29
2018-05-09T19:33:25.609Z,71.04
2018-05-09T19:35:54.127Z,70.33
2018-05-09T19:38:23.412Z,72.12
2018-05-09T19:40:51.989Z,72.33
2018-05-09T19:43:21.047Z,71.51
2018-05-09T19:45:49.736Z,70.64
2018-05-09T19:48:18.449Z,68.25
2018-05-09T19:50:47.365Z,70.17
2018-05-09T19:53:15.944Z,70.56
2018-05-09T19:55:44.624Z,68.19
2018-05-09T19:58:13.498Z,69.77
2018-05-09T20:00:41.985Z,68.01
2018-05-09T20:03:11.180Z,70.35
2018-05-09T20:05:39.782Z,69.58
2018-05-09T20:08:08.491Z,68.89
2018-05-09T20:10:37.388Z,69.65
2018-05-09T20:13:06.216Z,69.96
2018-05-09T20:15:35.354Z,68.66
2018-05-09T20:18:04.122Z,71.15
2018-05-09T20:20:32.846Z,71.93
2018-05-09T20:23:01.632Z,70.88
2018-05-09T20:25:30.092Z,71.13
2018-05-09T20:27:59.283Z,69.20
2018-05-09T20:30:32.032Z,70.58
2018-05-09T20:33:00.600Z,70.00
2018-05-09T20:35:29.123Z,71.64
2018-05-09T20:37:58.000Z,72.13
2018-05-09T20:40:26.502Z,72.67
2018-05-09T20:42:55.604Z,70.26
2018-05-09T20:45:24.338Z,69.50
2018-05-09T20:47:53.992Z,68.86
2018-05-09T20:50:22.498Z,68.10
2018-05-09T20:52:53.882Z,65.85
2018-05-09T20:55:30.475Z,65.59
2018-05-09T20:57:59.926Z,65.38
2018-05-09T21:00:28.679Z,64.63
2018-05-09T21:02:59.121Z,64.27
2018-05-09T21:05:27.936Z,64.83
2018-05-09T21:07:58.963Z,64.71
2018-05-09T21:10:29.784Z,64.58
2018-05-09T21:12:58.558Z,64.11
2018-05-09T21:15:28.372Z,64.16
2018-05-09T21:17:57.320Z,65.37
2018-05-09T21:20:25.861Z,64.55
2018-05-09T21:22:54.977Z,65.12
2018-05-09T21:25:23.861Z,65.54
2018-05-09T21:27:57.579Z,64.68
2018-05-09T21:30:27.706Z,64.94
2018-05-09T21:32:57.917Z,64.91
2018-05-09T21:35:26.876Z,65.42
2018-05-09T21:37:57.469Z,64.83
2018-05-09T21:40:26.481Z,65.69
2018-05-09T21:42:54.946Z,65.74
2018-05-09T21:45:23.494Z,65.74
2018-05-09T21:47:56.449Z,65.17
2018-05-09T21:50:26.748Z,65.29
2018-05-09T21:52:58.792Z,65.95
2018-05-09T21:55:31.109Z,65.52
2018-05-09T21:58:01.414Z,65.00
2018-05-09T22:00:31.196Z,66.25
2018-05-09T22:02:59.991Z,65.71
2018-05-09T22:05:28.866Z,65.87
2018-05-09T22:08:02.932Z,65.24
2018-05-09T22:10:33.315Z,67.86
2018-05-09T22:13:02.235Z,67.60
2018-05-09T22:15:30.906Z,66.96
2018-05-09T22:17:59.297Z,69.42
2018-05-09T22:20:28.192Z,69.14
2018-05-09T22:22:56.589Z,69.47
2018-05-09T22:25:25.167Z,70.10
2018-05-09T22:27:53.823Z,70.54
2018-05-09T22:30:22.320Z,71.27
2018-05-09T22:32:53.745Z,70.78
2018-05-09T22:35:22.470Z,71.33
2018-05-09T22:37:51.008Z,71.54
2018-05-09T22:40:19.738Z,71.75
2018-05-09T22:42:48.367Z,72.44
2018-05-09T22:45:17.742Z,72.77
2018-05-09T22:47:46.474Z,73.05
2018-05-09T22:50:15.092Z,73.33
2018-05-09T22:52:43.736Z,74.21
2018-05-09T22:55:12.378Z,72.65
2018-05-09T22:57:40.819Z,72.88
2018-05-09T23:00:09.795Z,72.90
2018-05-09T23:02:44.279Z,74.73
2018-05-09T23:05:17.202Z,72.58
2018-05-09T23:07:46.471Z,72.35
2018-05-09T23:10:15.297Z,73.00
2018-05-09T23:12:43.900Z,73.84
2018-05-09T23:15:12.937Z,71.56
2018-05-09T23:17:42.185Z,73.48
2018-05-09T23:20:11.185Z,72.69
2018-05-09T23:22:41.655Z,71.96
2018-05-09T23:25:10.282Z,70.70
2018-05-09T23:27:38.703Z,71.44
2018-05-09T23:30:08.165Z,71.24
2018-05-09T23:32:37.249Z,70.62
2018-05-09T23:35:05.925Z,69.56
2018-05-09T23:37:35.299Z,69.14
2018-05-09T23:40:03.863Z,69.74
2018-05-09T23:42:32.690Z,70.30
2018-05-09T23:45:01.239Z,69.69
2018-05-09T23:47:29.980Z,69.34
2018-05-09T23:49:58.586Z,69.57
2018-05-09T23:52:27.270Z,70.26
2018-05-09T23:54:55.738Z,70.35
2018-05-09T23:57:24.468Z,70.42
2018-05-09T23:59:53.151Z,70.39
